sensor_id;sensor_type;location;lat;lon;timestamp;noise_LAeq;noise_LA_min;noise_LA_max;noise_LA01;noise_LA95
61095;Laerm;20450;49.074;9.158;2023-04-06T00:01:12;46.30;44.43;47.96;;
61095;Laerm;20450;49.074;9.158;2023-04-06T00:03:39;45.81;44.43;47.48;;
61095;Laerm;20450;49.074;9.158;2023-04-06T00:06:07;45.49;44.07;47.18;;
61095;Laerm;20450;49.074;9.158;2023-04-06T00:09:26;45.27;44.07;46.57;;
61095;Laerm;20450;49.074;9.158;2023-04-06T00:11:53;45.19;43.81;46.91;;
61095;Laerm;20450;49.074;9.158;2023-04-06T00:14:20;45.52;43.68;47.38;;
61095;Laerm;20450;49.074;9.158;2023-04-06T00:16:47;45.44;43.81;46.93;;
61095;Laerm;20450;49.074;9.158;2023-04-06T00:19:14;45.26;43.94;47.14;;
61095;Laerm;20450;49.074;9.158;2023-04-06T00:21:42;45.08;43.77;46.50;;
61095;Laerm;20450;49.074;9.158;2023-04-06T00:24:09;45.11;43.81;46.69;;
61095;Laerm;20450;49.074;9.158;2023-04-06T00:26:37;45.38;43.81;46.84;;
61095;Laerm;20450;49.074;9.158;2023-04-06T00:29:04;45.57;44.08;50.34;;
61095;Laerm;20450;49.074;9.158;2023-04-06T00:31:32;45.56;44.07;47.19;;
61095;Laerm;20450;49.074;9.158;2023-04-06T00:33:59;45.86;44.19;47.93;;
61095;Laerm;20450;49.074;9.158;2023-04-06T00:36:26;46.27;44.54;48.23;;
61095;Laerm;20450;49.074;9.158;2023-04-06T00:38:53;46.15;44.51;48.00;;
61095;Laerm;20450;49.074;9.158;2023-04-06T00:41:20;45.93;44.27;49.67;;
61095;Laerm;20450;49.074;9.158;2023-04-06T00:44:14;46.09;44.43;48.23;;
61095;Laerm;20450;49.074;9.158;2023-04-06T00:46:42;45.81;44.39;47.40;;
61095;Laerm;20450;49.074;9.158;2023-04-06T00:49:09;45.88;44.47;47.40;;
61095;Laerm;20450;49.074;9.158;2023-04-06T00:51:36;46.15;44.51;51.03;;
61095;Laerm;20450;49.074;9.158;2023-04-06T00:54:04;45.76;44.19;47.50;;
61095;Laerm;20450;49.074;9.158;2023-04-06T00:56:33;45.73;44.19;47.44;;
61095;Laerm;20450;49.074;9.158;2023-04-06T00:59:00;45.67;44.19;47.72;;
61095;Laerm;20450;49.074;9.158;2023-04-06T01:01:29;45.37;43.94;46.97;;
61095;Laerm;20450;49.074;9.158;2023-04-06T01:04:01;45.44;44.07;47.12;;
61095;Laerm;20450;49.074;9.158;2023-04-06T01:06:32;45.38;43.60;47.16;;
61095;Laerm;20450;49.074;9.158;2023-04-06T01:09:01;45.46;43.77;47.30;;
61095;Laerm;20450;49.074;9.158;2023-04-06T01:13:56;46.11;44.51;47.98;;
61095;Laerm;20450;49.074;9.158;2023-04-06T01:16:26;45.61;44.11;48.73;;
61095;Laerm;20450;49.074;9.158;2023-04-06T01:19:11;45.24;43.77;46.76;;
61095;Laerm;20450;49.074;9.158;2023-04-06T01:21:44;45.23;43.81;46.95;;
61095;Laerm;20450;49.074;9.158;2023-04-06T01:24:33;45.37;44.07;47.16;;
61095;Laerm;20450;49.074;9.158;2023-04-06T01:27:06;45.51;43.77;47.24;;
61095;Laerm;20450;49.074;9.158;2023-04-06T01:29:53;45.49;43.86;47.46;;
61095;Laerm;20450;49.074;9.158;2023-04-06T01:32:49;45.42;44.07;47.10;;
61095;Laerm;20450;49.074;9.158;2023-04-06T01:35:27;45.69;44.35;47.30;;
61095;Laerm;20450;49.074;9.158;2023-04-06T01:38:09;45.70;44.23;47.50;;
61095;Laerm;20450;49.074;9.158;2023-04-06T01:40:38;45.64;44.19;47.65;;
61095;Laerm;20450;49.074;9.158;2023-04-06T01:43:05;45.91;44.39;47.48;;
61095;Laerm;20450;49.074;9.158;2023-04-06T01:45:39;46.06;44.07;47.74;;
61095;Laerm;20450;49.074;9.158;2023-04-06T01:48:14;45.97;44.54;47.90;;
61095;Laerm;20450;49.074;9.158;2023-04-06T01:50:41;46.43;44.80;48.18;;
61095;Laerm;20450;49.074;9.158;2023-04-06T01:53:11;45.93;44.15;47.81;;
61095;Laerm;20450;49.074;9.158;2023-04-06T01:55:42;45.78;43.94;47.61;;
61095;Laerm;20450;49.074;9.158;2023-04-06T01:58:35;45.38;43.81;47.08;;
61095;Laerm;20450;49.074;9.158;2023-04-06T02:01:02;45.57;44.11;47.32;;
61095;Laerm;20450;49.074;9.158;2023-04-06T02:03:40;45.72;44.11;47.54;;
61095;Laerm;20450;49.074;9.158;2023-04-06T02:06:10;45.46;43.89;47.18;;
61095;Laerm;20450;49.074;9.158;2023-04-06T02:08:39;45.32;44.03;46.89;;
61095;Laerm;20450;49.074;9.158;2023-04-06T02:11:08;45.41;44.03;49.92;;
61095;Laerm;20450;49.074;9.158;2023-04-06T02:13:48;45.55;43.72;47.14;;
61095;Laerm;20450;49.074;9.158;2023-04-06T02:16:16;45.55;44.19;46.93;;
61095;Laerm;20450;49.074;9.158;2023-04-06T02:18:45;45.43;44.03;46.93;;
61095;Laerm;20450;49.074;9.158;2023-04-06T02:21:12;45.56;44.15;47.16;;
61095;Laerm;20450;49.074;9.158;2023-04-06T02:23:39;45.38;43.94;47.04;;
61095;Laerm;20450;49.074;9.158;2023-04-06T02:26:07;45.37;43.93;46.82;;
61095;Laerm;20450;49.074;9.158;2023-04-06T02:28:34;45.48;43.90;47.54;;
61095;Laerm;20450;49.074;9.158;2023-04-06T02:31:01;45.52;43.86;47.86;;
61095;Laerm;20450;49.074;9.158;2023-04-06T02:33:29;45.22;43.54;46.76;;
61095;Laerm;20450;49.074;9.158;2023-04-06T02:35:56;45.21;43.77;47.00;;
61095;Laerm;20450;49.074;9.158;2023-04-06T02:38:23;45.24;43.94;46.84;;
61095;Laerm;20450;49.074;9.158;2023-04-06T02:40:51;45.29;43.77;47.12;;
61095;Laerm;20450;49.074;9.158;2023-04-06T02:43:25;45.31;43.86;46.82;;
61095;Laerm;20450;49.074;9.158;2023-04-06T02:46:01;45.13;43.77;47.10;;
61095;Laerm;20450;49.074;9.158;2023-04-06T02:48:32;45.14;43.90;48.13;;
61095;Laerm;20450;49.074;9.158;2023-04-06T02:50:59;45.46;43.86;47.26;;
61095;Laerm;20450;49.074;9.158;2023-04-06T02:53:26;45.40;44.07;46.80;;
61095;Laerm;20450;49.074;9.158;2023-04-06T02:55:53;45.63;43.81;53.13;;
61095;Laerm;20450;49.074;9.158;2023-04-06T02:58:22;45.73;44.35;51.11;;
61095;Laerm;20450;49.074;9.158;2023-04-06T03:01:45;45.49;44.03;47.22;;
61095;Laerm;20450;49.074;9.158;2023-04-06T03:04:12;45.33;43.99;48.25;;
61095;Laerm;20450;49.074;9.158;2023-04-06T03:11:18;45.40;43.99;48.58;;
61095;Laerm;20450;49.074;9.158;2023-04-06T03:14:47;45.29;43.72;47.02;;
61095;Laerm;20450;49.074;9.158;2023-04-06T03:17:16;45.39;44.07;47.16;;
61095;Laerm;20450;49.074;9.158;2023-04-06T03:19:43;45.65;44.11;47.57;;
61095;Laerm;20450;49.074;9.158;2023-04-06T03:23:01;45.72;44.19;47.36;;
61095;Laerm;20450;49.074;9.158;2023-04-06T03:25:34;45.89;44.39;47.90;;
61095;Laerm;20450;49.074;9.158;2023-04-06T03:28:04;45.62;44.31;47.48;;
61095;Laerm;20450;49.074;9.158;2023-04-06T03:30:37;45.58;43.86;49.91;;
61095;Laerm;20450;49.074;9.158;2023-04-06T03:33:05;45.39;44.03;47.08;;
61095;Laerm;20450;49.074;9.158;2023-04-06T03:35:39;45.58;43.94;47.79;;
61095;Laerm;20450;49.074;9.158;2023-04-06T03:38:07;45.56;44.15;47.00;;
61095;Laerm;20450;49.074;9.158;2023-04-06T03:40:35;45.25;43.81;49.70;;
61095;Laerm;20450;49.074;9.158;2023-04-06T03:43:02;45.24;43.81;47.00;;
61095;Laerm;20450;49.074;9.158;2023-04-06T03:45:30;45.32;43.72;46.87;;
61095;Laerm;20450;49.074;9.158;2023-04-06T03:47:57;45.74;44.19;52.78;;
61095;Laerm;20450;49.074;9.158;2023-04-06T03:50:25;45.70;44.19;47.46;;
61095;Laerm;20450;49.074;9.158;2023-04-06T03:52:53;45.59;44.07;47.44;;
61095;Laerm;20450;49.074;9.158;2023-04-06T03:55:20;45.67;44.15;47.55;;
61095;Laerm;20450;49.074;9.158;2023-04-06T03:57:47;45.89;44.15;51.14;;
61095;Laerm;20450;49.074;9.158;2023-04-06T04:00:15;46.01;44.23;52.60;;
61095;Laerm;20450;49.074;9.158;2023-04-06T04:02:42;45.58;44.11;48.96;;
61095;Laerm;20450;49.074;9.158;2023-04-06T04:05:09;45.53;43.86;47.61;;
61095;Laerm;20450;49.074;9.158;2023-04-06T04:07:38;46.17;44.03;54.72;;
61095;Laerm;20450;49.074;9.158;2023-04-06T04:10:07;45.75;43.94;55.38;;
61095;Laerm;20450;49.074;9.158;2023-04-06T04:12:38;46.13;43.99;55.17;;
61095;Laerm;20450;49.074;9.158;2023-04-06T04:15:06;45.50;43.90;48.25;;
61095;Laerm;20450;49.074;9.158;2023-04-06T04:17:33;45.66;44.23;49.47;;
61095;Laerm;20450;49.074;9.158;2023-04-06T04:20:00;45.82;43.99;50.81;;
61095;Laerm;20450;49.074;9.158;2023-04-06T04:22:28;46.07;44.23;51.18;;
61095;Laerm;20450;49.074;9.158;2023-04-06T04:24:57;46.00;44.23;55.78;;
61095;Laerm;20450;49.074;9.158;2023-04-06T04:27:24;45.86;44.07;51.60;;
61095;Laerm;20450;49.074;9.158;2023-04-06T04:29:52;46.25;44.39;54.36;;
61095;Laerm;20450;49.074;9.158;2023-04-06T04:32:19;46.56;44.43;56.01;;
61095;Laerm;20450;49.074;9.158;2023-04-06T04:34:47;46.23;44.62;49.10;;
61095;Laerm;20450;49.074;9.158;2023-04-06T04:37:25;46.31;44.51;59.35;;
61095;Laerm;20450;49.074;9.158;2023-04-06T04:39:56;45.81;44.15;49.70;;
61095;Laerm;20450;49.074;9.158;2023-04-06T04:42:23;45.86;44.35;48.51;;
61095;Laerm;20450;49.074;9.158;2023-04-06T04:44:54;46.12;44.62;53.07;;
61095;Laerm;20450;49.074;9.158;2023-04-06T04:47:32;45.87;44.27;51.37;;
61095;Laerm;20450;49.074;9.158;2023-04-06T04:49:59;45.72;44.03;52.60;;
61095;Laerm;20450;49.074;9.158;2023-04-06T04:52:27;45.74;44.23;51.95;;
61095;Laerm;20450;49.074;9.158;2023-04-06T04:55:01;46.06;44.39;52.22;;
61095;Laerm;20450;49.074;9.158;2023-04-06T04:57:30;46.19;44.35;52.99;;
61095;Laerm;20450;49.074;9.158;2023-04-06T04:59:57;46.24;44.23;51.42;;
61095;Laerm;20450;49.074;9.158;2023-04-06T05:02:49;45.75;44.23;50.96;;
61095;Laerm;20450;49.074;9.158;2023-04-06T05:05:26;45.99;44.27;49.19;;
61095;Laerm;20450;49.074;9.158;2023-04-06T05:07:53;45.78;44.03;49.03;;
61095;Laerm;20450;49.074;9.158;2023-04-06T05:10:32;46.01;44.27;49.77;;
61095;Laerm;20450;49.074;9.158;2023-04-06T05:13:01;45.82;44.11;48.95;;
61095;Laerm;20450;49.074;9.158;2023-04-06T05:15:28;45.93;44.39;55.02;;
61095;Laerm;20450;49.074;9.158;2023-04-06T05:18:01;46.30;44.54;54.03;;
61095;Laerm;20450;49.074;9.158;2023-04-06T05:20:32;46.67;44.76;53.27;;
61095;Laerm;20450;49.074;9.158;2023-04-06T05:23:01;46.47;44.80;52.46;;
61095;Laerm;20450;49.074;9.158;2023-04-06T05:25:30;46.66;44.94;54.32;;
61095;Laerm;20450;49.074;9.158;2023-04-06T05:28:05;46.50;44.69;50.60;;
61095;Laerm;20450;49.074;9.158;2023-04-06T05:30:35;46.61;44.86;55.41;;
61095;Laerm;20450;49.074;9.158;2023-04-06T05:33:03;47.25;45.11;58.05;;
61095;Laerm;20450;49.074;9.158;2023-04-06T05:35:57;47.01;44.97;56.80;;
61095;Laerm;20450;49.074;9.158;2023-04-06T05:38:26;46.89;44.51;54.02;;
61095;Laerm;20450;49.074;9.158;2023-04-06T05:40:56;46.62;44.69;52.84;;
61095;Laerm;20450;49.074;9.158;2023-04-06T05:43:30;46.56;44.69;51.96;;
61095;Laerm;20450;49.074;9.158;2023-04-06T05:45:59;46.81;44.97;54.41;;
61095;Laerm;20450;49.074;9.158;2023-04-06T05:48:26;46.97;44.94;56.41;;
61095;Laerm;20450;49.074;9.158;2023-04-06T05:50:53;46.66;44.83;54.54;;
61095;Laerm;20450;49.074;9.158;2023-04-06T05:53:27;47.43;45.45;53.58;;
61095;Laerm;20450;49.074;9.158;2023-04-06T05:56:00;47.83;45.42;55.10;;
61095;Laerm;20450;49.074;9.158;2023-04-06T05:58:30;47.26;45.36;51.04;;
61095;Laerm;20450;49.074;9.158;2023-04-06T06:00:58;46.40;44.47;52.03;;
61095;Laerm;20450;49.074;9.158;2023-04-06T06:03:27;45.88;44.07;49.44;;
61095;Laerm;20450;49.074;9.158;2023-04-06T06:06:00;47.05;44.73;51.13;;
61095;Laerm;20450;49.074;9.158;2023-04-06T06:08:33;47.68;45.48;58.64;;
61095;Laerm;20450;49.074;9.158;2023-04-06T06:11:03;47.92;45.80;55.82;;
61095;Laerm;20450;49.074;9.158;2023-04-06T06:13:31;47.86;45.86;55.56;;
61095;Laerm;20450;49.074;9.158;2023-04-06T06:16:00;47.89;45.57;52.04;;
61095;Laerm;20450;49.074;9.158;2023-04-06T06:18:27;47.54;45.51;50.94;;
61095;Laerm;20450;49.074;9.158;2023-04-06T06:24:42;47.94;45.72;54.33;;
61095;Laerm;20450;49.074;9.158;2023-04-06T06:27:11;47.72;45.45;53.21;;
61095;Laerm;20450;49.074;9.158;2023-04-06T06:29:39;47.23;44.90;54.94;;
61095;Laerm;20450;49.074;9.158;2023-04-06T06:32:07;46.23;43.99;53.95;;
61095;Laerm;20450;49.074;9.158;2023-04-06T06:34:35;46.08;44.23;50.56;;
61095;Laerm;20450;49.074;9.158;2023-04-06T06:37:05;47.58;45.20;54.08;;
61095;Laerm;20450;49.074;9.158;2023-04-06T06:39:33;47.87;45.66;57.66;;
61095;Laerm;20450;49.074;9.158;2023-04-06T06:42:01;47.73;44.65;58.69;;
61095;Laerm;20450;49.074;9.158;2023-04-06T06:44:48;47.92;45.36;53.89;;
61095;Laerm;20450;49.074;9.158;2023-04-06T06:47:17;47.69;45.69;53.92;;
61095;Laerm;20450;49.074;9.158;2023-04-06T06:49:45;48.03;45.86;55.84;;
61095;Laerm;20450;49.074;9.158;2023-04-06T06:52:12;47.99;45.75;51.53;;
61095;Laerm;20450;49.074;9.158;2023-04-06T06:54:40;48.15;45.83;54.20;;
61095;Laerm;20450;49.074;9.158;2023-04-06T06:57:12;48.45;46.28;60.99;;
61095;Laerm;20450;49.074;9.158;2023-04-06T06:59:42;48.46;46.10;59.58;;
61095;Laerm;20450;49.074;9.158;2023-04-06T07:02:10;48.49;46.30;56.19;;
61095;Laerm;20450;49.074;9.158;2023-04-06T07:04:37;48.16;45.91;56.16;;
61095;Laerm;20450;49.074;9.158;2023-04-06T07:07:04;48.10;45.42;58.64;;
61095;Laerm;20450;49.074;9.158;2023-04-06T07:09:32;47.93;45.48;58.80;;
61095;Laerm;20450;49.074;9.158;2023-04-06T07:11:59;47.67;44.83;54.50;;
61095;Laerm;20450;49.074;9.158;2023-04-06T07:14:27;51.32;46.62;60.28;;
61095;Laerm;20450;49.074;9.158;2023-04-06T07:16:54;52.04;47.54;64.92;;
61095;Laerm;20450;49.074;9.158;2023-04-06T07:19:24;50.90;45.72;67.96;;
61095;Laerm;20450;49.074;9.158;2023-04-06T07:21:52;47.80;45.45;56.61;;
61095;Laerm;20450;49.074;9.158;2023-04-06T07:24:19;48.12;45.54;53.95;;
61095;Laerm;20450;49.074;9.158;2023-04-06T07:26:46;48.02;45.04;57.46;;
61095;Laerm;20450;49.074;9.158;2023-04-06T07:29:13;47.78;45.39;61.58;;
61095;Laerm;20450;49.074;9.158;2023-04-06T07:31:41;48.29;45.75;55.81;;
61095;Laerm;20450;49.074;9.158;2023-04-06T07:34:08;48.16;45.48;53.25;;
61095;Laerm;20450;49.074;9.158;2023-04-06T07:36:39;48.09;46.13;60.08;;
61095;Laerm;20450;49.074;9.158;2023-04-06T07:39:07;49.32;46.30;60.90;;
61095;Laerm;20450;49.074;9.158;2023-04-06T07:41:35;48.67;46.07;57.05;;
61095;Laerm;20450;49.074;9.158;2023-04-06T07:44:04;48.29;45.75;53.64;;
61095;Laerm;20450;49.074;9.158;2023-04-06T07:46:38;48.27;46.18;57.74;;
61095;Laerm;20450;49.074;9.158;2023-04-06T07:49:06;49.26;46.62;57.09;;
61095;Laerm;20450;49.074;9.158;2023-04-06T07:51:36;48.83;45.54;56.53;;
61095;Laerm;20450;49.074;9.158;2023-04-06T07:54:06;48.71;45.97;55.16;;
61095;Laerm;20450;49.074;9.158;2023-04-06T07:56:33;48.28;45.63;56.25;;
61095;Laerm;20450;49.074;9.158;2023-04-06T07:59:00;49.17;46.71;55.34;;
61095;Laerm;20450;49.074;9.158;2023-04-06T08:01:29;48.78;46.35;56.25;;
61095;Laerm;20450;49.074;9.158;2023-04-06T08:03:56;52.06;46.45;61.22;;
61095;Laerm;20450;49.074;9.158;2023-04-06T08:06:24;49.07;46.73;55.24;;
61095;Laerm;20450;49.074;9.158;2023-04-06T08:08:51;48.84;46.62;53.41;;
61095;Laerm;20450;49.074;9.158;2023-04-06T08:11:20;48.28;45.51;53.07;;
61095;Laerm;20450;49.074;9.158;2023-04-06T08:13:47;48.93;46.25;60.74;;
61095;Laerm;20450;49.074;9.158;2023-04-06T08:16:14;47.88;45.69;54.63;;
61095;Laerm;20450;49.074;9.158;2023-04-06T08:18:41;50.20;45.80;64.20;;
61095;Laerm;20450;49.074;9.158;2023-04-06T08:21:08;48.30;45.69;53.99;;
61095;Laerm;20450;49.074;9.158;2023-04-06T08:23:35;48.65;46.59;56.34;;
61095;Laerm;20450;49.074;9.158;2023-04-06T08:26:02;48.91;45.77;55.88;;
61095;Laerm;20450;49.074;9.158;2023-04-06T08:28:31;48.40;45.69;57.91;;
61095;Laerm;20450;49.074;9.158;2023-04-06T08:30:58;48.00;45.45;55.61;;
61095;Laerm;20450;49.074;9.158;2023-04-06T08:33:26;48.66;46.10;58.37;;
61095;Laerm;20450;49.074;9.158;2023-04-06T08:35:53;48.24;45.45;55.38;;
61095;Laerm;20450;49.074;9.158;2023-04-06T08:38:20;48.24;45.91;58.40;;
61095;Laerm;20450;49.074;9.158;2023-04-06T08:40:48;48.19;45.94;54.10;;
61095;Laerm;20450;49.074;9.158;2023-04-06T08:43:19;48.31;45.97;54.13;;
61095;Laerm;20450;49.074;9.158;2023-04-06T08:45:51;48.91;46.13;63.49;;
61095;Laerm;20450;49.074;9.158;2023-04-06T08:48:18;49.47;46.64;58.13;;
61095;Laerm;20450;49.074;9.158;2023-04-06T08:50:47;49.13;46.82;56.99;;
61095;Laerm;20450;49.074;9.158;2023-04-06T08:53:16;53.22;46.50;64.94;;
61095;Laerm;20450;49.074;9.158;2023-04-06T08:55:44;57.14;46.64;77.37;;
61095;Laerm;20450;49.074;9.158;2023-04-06T08:58:14;58.35;46.91;69.85;;
61095;Laerm;20450;49.074;9.158;2023-04-06T09:01:13;52.54;45.69;68.28;;
61095;Laerm;20450;49.074;9.158;2023-04-06T09:03:42;49.18;45.99;63.31;;
61095;Laerm;20450;49.074;9.158;2023-04-06T09:06:13;48.71;46.43;58.88;;
61095;Laerm;20450;49.074;9.158;2023-04-06T09:08:41;50.37;46.69;63.07;;
61095;Laerm;20450;49.074;9.158;2023-04-06T09:11:09;49.07;46.23;55.99;;
61095;Laerm;20450;49.074;9.158;2023-04-06T09:13:48;49.87;45.97;60.42;;
61095;Laerm;20450;49.074;9.158;2023-04-06T09:16:27;48.88;46.43;53.63;;
61095;Laerm;20450;49.074;9.158;2023-04-06T09:18:54;48.66;45.94;54.87;;
61095;Laerm;20450;49.074;9.158;2023-04-06T09:21:31;48.57;45.97;56.03;;
61095;Laerm;20450;49.074;9.158;2023-04-06T09:23:59;48.82;46.20;56.41;;
61095;Laerm;20450;49.074;9.158;2023-04-06T09:26:26;48.43;46.15;55.25;;
61095;Laerm;20450;49.074;9.158;2023-04-06T09:28:57;48.36;46.18;54.02;;
61095;Laerm;20450;49.074;9.158;2023-04-06T09:31:28;48.73;46.40;59.49;;
61095;Laerm;20450;49.074;9.158;2023-04-06T09:33:57;48.64;46.07;66.07;;
61095;Laerm;20450;49.074;9.158;2023-04-06T09:36:31;48.13;45.72;53.27;;
61095;Laerm;20450;49.074;9.158;2023-04-06T09:39:01;49.68;46.23;65.29;;
61095;Laerm;20450;49.074;9.158;2023-04-06T09:41:31;48.67;46.35;54.45;;
61095;Laerm;20450;49.074;9.158;2023-04-06T09:44:03;48.87;45.99;56.54;;
61095;Laerm;20450;49.074;9.158;2023-04-06T09:46:36;48.91;46.25;55.61;;
61095;Laerm;20450;49.074;9.158;2023-04-06T09:53:38;47.30;44.31;55.60;;
61095;Laerm;20450;49.074;9.158;2023-04-06T09:56:17;48.41;44.97;57.33;;
61095;Laerm;20450;49.074;9.158;2023-04-06T09:58:57;48.75;46.13;58.43;;
61095;Laerm;20450;49.074;9.158;2023-04-06T10:01:57;48.88;46.50;54.49;;
61095;Laerm;20450;49.074;9.158;2023-04-06T10:04:37;48.91;46.25;54.53;;
61095;Laerm;20450;49.074;9.158;2023-04-06T10:07:07;48.90;46.52;55.91;;
61095;Laerm;20450;49.074;9.158;2023-04-06T10:09:37;48.35;46.18;52.70;;
61095;Laerm;20450;49.074;9.158;2023-04-06T10:12:06;48.01;45.30;52.50;;
61095;Laerm;20450;49.074;9.158;2023-04-06T10:14:34;47.84;45.39;50.34;;
61095;Laerm;20450;49.074;9.158;2023-04-06T10:17:04;48.45;46.05;64.84;;
61095;Laerm;20450;49.074;9.158;2023-04-06T10:19:46;47.74;45.48;54.57;;
61095;Laerm;20450;49.074;9.158;2023-04-06T10:22:29;48.25;45.23;55.19;;
61095;Laerm;20450;49.074;9.158;2023-04-06T10:25:00;47.97;45.27;63.14;;
61095;Laerm;20450;49.074;9.158;2023-04-06T10:27:28;48.16;45.30;55.37;;
61095;Laerm;20450;49.074;9.158;2023-04-06T10:30:02;47.39;44.62;53.99;;
61095;Laerm;20450;49.074;9.158;2023-04-06T10:32:35;48.16;44.54;56.78;;
61095;Laerm;20450;49.074;9.158;2023-04-06T10:35:07;47.81;44.07;54.54;;
61095;Laerm;20450;49.074;9.158;2023-04-06T10:37:52;47.93;44.97;52.45;;
61095;Laerm;20450;49.074;9.158;2023-04-06T10:40:24;47.45;44.65;52.01;;
61095;Laerm;20450;49.074;9.158;2023-04-06T10:42:55;48.17;45.20;55.32;;
61095;Laerm;20450;49.074;9.158;2023-04-06T10:45:24;48.14;45.39;52.83;;
61095;Laerm;20450;49.074;9.158;2023-04-06T10:47:54;47.70;44.31;53.47;;
61095;Laerm;20450;49.074;9.158;2023-04-06T10:50:22;46.84;43.77;56.13;;
61095;Laerm;20450;49.074;9.158;2023-04-06T10:52:59;47.35;45.11;52.29;;
61095;Laerm;20450;49.074;9.158;2023-04-06T10:55:29;47.16;44.76;52.04;;
61095;Laerm;20450;49.074;9.158;2023-04-06T10:57:57;46.86;44.35;54.53;;
61095;Laerm;20450;49.074;9.158;2023-04-06T11:00:25;47.20;45.27;55.50;;
61095;Laerm;20450;49.074;9.158;2023-04-06T11:03:07;47.04;44.35;53.26;;
61095;Laerm;20450;49.074;9.158;2023-04-06T11:05:43;46.99;44.47;57.40;;
61095;Laerm;20450;49.074;9.158;2023-04-06T11:08:24;47.45;44.31;60.54;;
61095;Laerm;20450;49.074;9.158;2023-04-06T11:10:51;46.18;43.90;50.83;;
61095;Laerm;20450;49.074;9.158;2023-04-06T11:13:19;48.05;44.80;57.02;;
61095;Laerm;20450;49.074;9.158;2023-04-06T11:15:46;49.09;45.99;57.10;;
61095;Laerm;20450;49.074;9.158;2023-04-06T11:18:17;47.61;45.31;50.65;;
61095;Laerm;20450;49.074;9.158;2023-04-06T11:20:48;48.00;45.66;61.38;;
61095;Laerm;20450;49.074;9.158;2023-04-06T11:23:23;47.69;45.01;52.14;;
61095;Laerm;20450;49.074;9.158;2023-04-06T11:25:51;47.66;44.54;52.07;;
61095;Laerm;20450;49.074;9.158;2023-04-06T11:28:19;48.18;45.04;52.13;;
61095;Laerm;20450;49.074;9.158;2023-04-06T11:30:47;48.31;45.57;55.79;;
61095;Laerm;20450;49.074;9.158;2023-04-06T11:33:21;49.21;45.01;62.48;;
61095;Laerm;20450;49.074;9.158;2023-04-06T11:35:48;54.96;44.35;71.36;;
61095;Laerm;20450;49.074;9.158;2023-04-06T11:38:18;46.83;44.11;53.98;;
61095;Laerm;20450;49.074;9.158;2023-04-06T11:40:45;46.85;44.15;52.38;;
61095;Laerm;20450;49.074;9.158;2023-04-06T11:43:12;47.79;44.97;54.00;;
61095;Laerm;20450;49.074;9.158;2023-04-06T11:45:42;47.46;44.90;51.27;;
61095;Laerm;20450;49.074;9.158;2023-04-06T11:48:18;47.27;44.65;51.63;;
61095;Laerm;20450;49.074;9.158;2023-04-06T11:50:47;47.22;44.73;56.40;;
61095;Laerm;20450;49.074;9.158;2023-04-06T11:53:14;46.81;44.23;52.36;;
61095;Laerm;20450;49.074;9.158;2023-04-06T11:55:41;46.96;44.59;50.32;;
61095;Laerm;20450;49.074;9.158;2023-04-06T11:58:08;47.41;44.23;52.25;;
61095;Laerm;20450;49.074;9.158;2023-04-06T12:00:37;47.03;44.19;50.95;;
61095;Laerm;20450;49.074;9.158;2023-04-06T12:03:04;47.06;44.43;56.60;;
61095;Laerm;20450;49.074;9.158;2023-04-06T12:05:33;47.43;44.69;54.12;;
61095;Laerm;20450;49.074;9.158;2023-04-06T12:08:02;47.50;44.65;54.52;;
61095;Laerm;20450;49.074;9.158;2023-04-06T12:10:29;47.60;45.04;67.88;;
61095;Laerm;20450;49.074;9.158;2023-04-06T12:12:57;47.21;44.76;53.70;;
61095;Laerm;20450;49.074;9.158;2023-04-06T12:15:24;47.18;44.80;53.43;;
61095;Laerm;20450;49.074;9.158;2023-04-06T12:17:52;46.65;44.23;53.15;;
61095;Laerm;20450;49.074;9.158;2023-04-06T12:20:19;47.07;44.73;50.90;;
61095;Laerm;20450;49.074;9.158;2023-04-06T12:22:53;47.20;44.90;54.95;;
61095;Laerm;20450;49.074;9.158;2023-04-06T12:25:34;47.58;44.31;54.15;;
61095;Laerm;20450;49.074;9.158;2023-04-06T12:28:01;49.59;46.80;58.81;;
61095;Laerm;20450;49.074;9.158;2023-04-06T12:30:29;49.01;45.94;52.39;;
61095;Laerm;20450;49.074;9.158;2023-04-06T12:32:55;48.70;45.48;53.67;;
61095;Laerm;20450;49.074;9.158;2023-04-06T12:35:23;49.22;46.45;54.33;;
61095;Laerm;20450;49.074;9.158;2023-04-06T12:38:41;48.42;45.89;54.61;;
61095;Laerm;20450;49.074;9.158;2023-04-06T12:41:10;48.33;45.89;52.58;;
61095;Laerm;20450;49.074;9.158;2023-04-06T12:43:37;48.28;45.60;52.63;;
61095;Laerm;20450;49.074;9.158;2023-04-06T12:46:04;48.26;45.72;56.72;;
61095;Laerm;20450;49.074;9.158;2023-04-06T12:48:31;48.42;45.42;52.21;;
61095;Laerm;20450;49.074;9.158;2023-04-06T12:51:01;48.18;45.54;52.74;;
61095;Laerm;20450;49.074;9.158;2023-04-06T12:53:28;47.85;45.07;54.64;;
61095;Laerm;20450;49.074;9.158;2023-04-06T12:55:56;47.75;44.94;53.25;;
61095;Laerm;20450;49.074;9.158;2023-04-06T12:58:25;47.44;45.17;54.94;;
61095;Laerm;20450;49.074;9.158;2023-04-06T13:00:53;48.85;45.11;58.83;;
61095;Laerm;20450;49.074;9.158;2023-04-06T13:03:21;48.02;44.90;55.31;;
61095;Laerm;20450;49.074;9.158;2023-04-06T13:05:50;48.06;45.20;52.92;;
61095;Laerm;20450;49.074;9.158;2023-04-06T13:08:19;47.61;44.76;54.68;;
61095;Laerm;20450;49.074;9.158;2023-04-06T13:10:48;47.77;45.14;51.67;;
61095;Laerm;20450;49.074;9.158;2023-04-06T13:13:16;47.67;44.83;64.44;;
61095;Laerm;20450;49.074;9.158;2023-04-06T13:15:44;47.48;45.30;53.93;;
61095;Laerm;20450;49.074;9.158;2023-04-06T13:18:11;47.74;45.27;52.31;;
61095;Laerm;20450;49.074;9.158;2023-04-06T13:20:38;48.01;45.66;54.22;;
61095;Laerm;20450;49.074;9.158;2023-04-06T13:23:06;47.53;45.17;51.16;;
61095;Laerm;20450;49.074;9.158;2023-04-06T13:25:33;48.18;45.57;59.55;;
61095;Laerm;20450;49.074;9.158;2023-04-06T13:28:00;48.39;45.45;54.58;;
61095;Laerm;20450;49.074;9.158;2023-04-06T13:30:28;47.91;45.63;52.02;;
61095;Laerm;20450;49.074;9.158;2023-04-06T13:32:56;47.62;45.04;55.06;;
61095;Laerm;20450;49.074;9.158;2023-04-06T13:35:23;47.82;45.57;53.99;;
61095;Laerm;20450;49.074;9.158;2023-04-06T13:37:51;50.44;45.66;62.80;;
61095;Laerm;20450;49.074;9.158;2023-04-06T13:40:18;48.42;45.66;52.64;;
61095;Laerm;20450;49.074;9.158;2023-04-06T13:43:24;47.81;45.48;50.54;;
61095;Laerm;20450;49.074;9.158;2023-04-06T13:45:54;48.50;45.63;55.73;;
61095;Laerm;20450;49.074;9.158;2023-04-06T13:48:23;48.34;45.75;53.26;;
61095;Laerm;20450;49.074;9.158;2023-04-06T13:50:50;48.10;45.39;54.63;;
61095;Laerm;20450;49.074;9.158;2023-04-06T13:53:17;48.00;45.39;56.56;;
61095;Laerm;20450;49.074;9.158;2023-04-06T13:55:53;49.67;45.31;62.85;;
61095;Laerm;20450;49.074;9.158;2023-04-06T13:58:20;47.75;45.27;52.07;;
61095;Laerm;20450;49.074;9.158;2023-04-06T14:00:46;48.15;45.75;52.40;;
61095;Laerm;20450;49.074;9.158;2023-04-06T14:03:13;48.53;45.72;56.06;;
61095;Laerm;20450;49.074;9.158;2023-04-06T14:05:42;49.48;46.66;59.88;;
61095;Laerm;20450;49.074;9.158;2023-04-06T14:08:10;48.71;46.40;55.00;;
61095;Laerm;20450;49.074;9.158;2023-04-06T14:10:38;48.81;46.40;55.05;;
61095;Laerm;20450;49.074;9.158;2023-04-06T14:13:06;48.58;46.05;52.84;;
61095;Laerm;20450;49.074;9.158;2023-04-06T14:15:34;49.30;46.48;57.45;;
61095;Laerm;20450;49.074;9.158;2023-04-06T14:18:01;48.75;45.80;54.38;;
61095;Laerm;20450;49.074;9.158;2023-04-06T14:20:30;47.69;44.65;54.93;;